createdAt,value
2018-11-23T00:00:35.190Z,31.60
2018-11-23T00:03:23.788Z,33.07
2018-11-23T00:05:52.819Z,33.53
2018-11-23T00:08:41.271Z,32.23
2018-11-23T00:11:29.809Z,34.13
2018-11-23T00:14:18.258Z,32.47
2018-11-23T00:17:06.590Z,29.43
2018-11-23T00:19:54.950Z,29.77
2018-11-23T00:22:43.527Z,32.47
2018-11-23T00:25:31.902Z,34.27
2018-11-23T00:28:20.273Z,32.77
2018-11-23T00:31:08.662Z,34.03
2018-11-23T00:33:57.009Z,31.37
2018-11-23T00:36:45.439Z,34.83
2018-11-23T00:39:33.773Z,30.53
2018-11-23T00:45:48.143Z,33.50
2018-11-23T00:48:29.298Z,33.97
2018-11-23T00:51:10.693Z,33.33
2018-11-23T00:53:52.290Z,33.43
2018-11-23T00:56:33.687Z,32.90
2018-11-23T00:59:15.420Z,34.80
2018-11-23T01:02:03.465Z,31.83
2018-11-23T01:04:51.880Z,35.87
2018-11-23T01:07:21.099Z,35.43
2018-11-23T01:10:10.744Z,34.23
2018-11-23T01:12:59.318Z,30.17
2018-11-23T01:15:47.700Z,33.70
2018-11-23T01:18:36.055Z,35.30
2018-11-23T01:21:24.455Z,37.70
2018-11-23T01:24:12.781Z,35.23
2018-11-23T01:27:01.193Z,35.47
2018-11-23T01:29:49.519Z,34.60
2018-11-23T01:32:37.883Z,34.77
2018-11-23T01:35:26.383Z,37.97
2018-11-23T01:38:14.802Z,34.60
2018-11-23T01:41:03.221Z,36.13
2018-11-23T01:43:51.637Z,38.23
2018-11-23T01:46:40.101Z,35.90
2018-11-23T01:49:28.441Z,37.93
2018-11-23T01:52:16.794Z,35.97
2018-11-23T01:55:05.890Z,38.23
2018-11-23T01:57:54.249Z,37.97
2018-11-23T02:00:42.667Z,39.50
2018-11-23T02:03:31.113Z,32.00
2018-11-23T02:06:00.147Z,34.77
2018-11-23T02:08:48.604Z,37.17
2018-11-23T02:11:38.019Z,35.80
2018-11-23T02:14:25.326Z,34.33
2018-11-23T02:17:13.665Z,36.10
2018-11-23T02:20:01.997Z,35.30
2018-11-23T02:22:50.354Z,35.40
2018-11-23T02:25:38.725Z,33.23
2018-11-23T02:28:27.081Z,32.73
2018-11-23T02:31:15.363Z,35.70
2018-11-23T02:34:03.780Z,33.80
2018-11-23T02:36:52.073Z,34.07
2018-11-23T02:39:40.787Z,32.50
2018-11-23T02:42:29.126Z,35.47
2018-11-23T02:45:36.574Z,35.00
2018-11-23T02:48:24.933Z,37.67
2018-11-23T02:51:13.348Z,36.73
2018-11-23T02:54:01.699Z,37.67
2018-11-23T02:56:50.142Z,41.73
2018-11-23T02:59:38.669Z,34.40
2018-11-23T03:02:27.112Z,34.53
2018-11-23T03:05:16.742Z,39.27
2018-11-23T03:08:05.411Z,38.53
2018-11-23T03:10:53.665Z,36.40
2018-11-23T03:13:22.698Z,34.43
2018-11-23T03:15:51.660Z,34.50
2018-11-23T03:18:40.064Z,35.57
2018-11-23T03:21:28.375Z,37.23
2018-11-23T03:24:16.870Z,36.67
2018-11-23T03:27:05.252Z,32.00
2018-11-23T03:29:53.821Z,36.57
2018-11-23T03:32:42.268Z,36.03
2018-11-23T03:35:30.613Z,36.43
2018-11-23T03:38:18.937Z,34.30
2018-11-23T03:41:07.260Z,35.07
2018-11-23T03:43:48.763Z,34.00
2018-11-23T03:46:30.536Z,34.67
2018-11-23T03:49:11.785Z,37.53
2018-11-23T03:51:53.361Z,37.00
2018-11-23T03:54:22.400Z,38.73
2018-11-23T03:57:10.800Z,38.57
2018-11-23T03:59:59.144Z,40.23
2018-11-23T04:02:47.659Z,37.47
2018-11-23T04:05:35.989Z,36.93
2018-11-23T04:08:24.366Z,39.47
2018-11-23T04:11:12.735Z,33.77
2018-11-23T04:14:01.077Z,36.60
2018-11-23T04:16:30.023Z,36.40
2018-11-23T04:19:18.366Z,38.73
2018-11-23T04:21:47.460Z,37.90
2018-11-23T04:24:36.037Z,40.97
2018-11-23T04:27:24.370Z,42.20
2018-11-23T04:33:28.044Z,40.10
2018-11-23T04:36:16.365Z,39.07
2018-11-23T04:39:06.110Z,41.40
2018-11-23T04:41:54.448Z,37.40
2018-11-23T04:44:42.757Z,41.00
2018-11-23T04:47:11.838Z,37.23
2018-11-23T04:49:40.827Z,38.47
2018-11-23T04:52:09.793Z,37.07
2018-11-23T04:54:58.211Z,36.43
2018-11-23T04:57:27.197Z,43.03
2018-11-23T05:00:15.645Z,43.77
2018-11-23T05:02:45.312Z,35.20
2018-11-23T05:05:33.671Z,38.77
2018-11-23T05:11:10.857Z,35.77
2018-11-23T05:13:59.313Z,38.33
2018-11-23T05:16:47.647Z,39.27
2018-11-23T05:19:35.960Z,39.93
2018-11-23T05:22:24.332Z,39.30
2018-11-23T05:25:13.381Z,35.60
2018-11-23T05:28:01.764Z,34.20
2018-11-23T05:30:50.052Z,39.90
2018-11-23T05:33:38.343Z,39.53
2018-11-23T05:36:26.672Z,38.93
2018-11-23T05:39:15.097Z,35.50
2018-11-23T05:41:44.347Z,37.70
2018-11-23T05:44:32.698Z,40.13
2018-11-23T05:47:21.174Z,38.27
2018-11-23T05:50:11.103Z,39.37
2018-11-23T05:52:59.467Z,38.23
2018-11-23T05:55:47.808Z,39.83
2018-11-23T05:58:36.157Z,41.27
2018-11-23T06:01:24.526Z,44.40
2018-11-23T06:04:12.921Z,37.67
2018-11-23T06:07:01.314Z,38.53
2018-11-23T06:09:49.901Z,42.07
2018-11-23T06:12:38.283Z,37.60
2018-11-23T06:15:26.592Z,37.97
2018-11-23T06:18:15.048Z,39.70
2018-11-23T06:21:03.301Z,39.00
2018-11-23T06:23:51.694Z,39.60
2018-11-23T06:26:40.011Z,38.93
2018-11-23T06:29:28.430Z,40.70
2018-11-23T06:32:36.068Z,38.43
2018-11-23T06:35:24.492Z,41.07
2018-11-23T06:38:12.774Z,41.63
2018-11-23T06:41:01.143Z,41.03
2018-11-23T06:43:42.742Z,39.10
2018-11-23T06:46:24.416Z,38.63
2018-11-23T06:49:05.510Z,41.93
2018-11-23T06:51:47.111Z,40.13
2018-11-23T06:54:28.822Z,40.00
2018-11-23T06:57:10.456Z,40.27
2018-11-23T06:59:52.053Z,38.53
2018-11-23T07:02:32.835Z,40.40
2018-11-23T07:05:14.420Z,42.23
2018-11-23T07:07:55.644Z,37.60
2018-11-23T07:10:37.480Z,42.90
2018-11-23T07:13:19.054Z,36.80
2018-11-23T07:16:00.110Z,41.57
2018-11-23T07:18:41.296Z,43.17
2018-11-23T07:21:22.073Z,41.83
2018-11-23T07:24:03.921Z,42.03
2018-11-23T07:26:45.411Z,41.93
2018-11-23T07:29:26.808Z,42.70
2018-11-23T07:32:08.604Z,42.87
2018-11-23T07:34:49.886Z,42.23
2018-11-23T07:37:31.168Z,45.90
2018-11-23T07:40:12.704Z,41.50
2018-11-23T07:42:53.996Z,46.87
2018-11-23T07:45:35.437Z,44.03
2018-11-23T07:48:04.515Z,50.53
2018-11-23T07:50:52.847Z,44.00
2018-11-23T07:53:41.181Z,46.10
2018-11-23T07:56:29.475Z,40.53
2018-11-23T07:59:17.854Z,43.57
2018-11-23T08:02:06.749Z,43.53
2018-11-23T08:04:35.937Z,41.47
2018-11-23T08:07:24.241Z,42.67
2018-11-23T08:10:31.100Z,44.23
2018-11-23T08:13:19.417Z,42.07
2018-11-23T08:16:07.856Z,44.13
2018-11-23T08:21:25.968Z,49.40
2018-11-23T08:24:14.372Z,45.53
2018-11-23T08:26:43.409Z,44.70
2018-11-23T08:29:31.743Z,44.60
2018-11-23T08:32:20.165Z,49.17
2018-11-23T08:35:08.482Z,48.17
2018-11-23T08:37:56.860Z,45.53
2018-11-23T08:40:27.040Z,44.17
2018-11-23T08:43:15.458Z,48.17
2018-11-23T08:45:44.388Z,51.17
2018-11-23T08:48:13.401Z,47.43
2018-11-23T08:51:01.735Z,47.87
2018-11-23T08:53:50.088Z,49.50
2018-11-23T08:56:38.424Z,48.50
2018-11-23T08:59:26.762Z,51.47
2018-11-23T09:01:55.770Z,53.17
2018-11-23T09:04:25.043Z,53.87
2018-11-23T09:07:13.880Z,49.53
2018-11-23T09:10:02.258Z,53.53
2018-11-23T09:12:51.435Z,48.90
2018-11-23T09:15:39.824Z,54.00
2018-11-23T09:18:28.177Z,53.63
2018-11-23T09:21:16.489Z,52.83
2018-11-23T09:24:04.920Z,48.37
2018-11-23T09:26:53.577Z,52.43
2018-11-23T09:29:41.889Z,48.07
2018-11-23T09:35:19.475Z,49.73
2018-11-23T09:37:48.828Z,51.80
2018-11-23T09:40:37.145Z,44.77
2018-11-23T09:43:06.324Z,45.83
2018-11-23T09:45:35.597Z,44.57
2018-11-23T09:48:23.895Z,41.07
2018-11-23T09:51:12.297Z,43.13
2018-11-23T09:54:00.597Z,45.07
2018-11-23T09:56:49.084Z,45.03
2018-11-23T09:59:18.009Z,44.73
2018-11-23T10:02:06.376Z,48.70
2018-11-23T10:04:54.713Z,46.13
2018-11-23T10:07:44.234Z,42.77
2018-11-23T10:10:32.589Z,41.37
2018-11-23T10:13:20.916Z,45.33
2018-11-23T10:16:09.556Z,48.03
2018-11-23T10:18:57.876Z,52.77
2018-11-23T10:21:46.228Z,51.63
2018-11-23T10:24:36.208Z,46.57
2018-11-23T10:27:22.948Z,57.13
2018-11-23T10:30:12.547Z,53.73
2018-11-23T10:33:02.251Z,51.07
2018-11-23T10:35:31.739Z,50.50
2018-11-23T10:38:20.063Z,50.53
2018-11-23T10:40:48.980Z,50.90
2018-11-23T10:43:37.331Z,53.63
2018-11-23T10:46:25.676Z,49.93
2018-11-23T10:49:14.061Z,52.70
2018-11-23T10:52:02.324Z,51.43
2018-11-23T10:54:50.632Z,50.90
2018-11-23T10:57:19.604Z,50.23
2018-11-23T11:00:30.765Z,53.47
2018-11-23T11:03:38.234Z,52.60
2018-11-23T11:09:51.315Z,53.63
2018-11-23T11:12:39.638Z,54.40
2018-11-23T11:15:28.076Z,53.60
2018-11-23T11:17:56.967Z,46.87
2018-11-23T11:20:45.293Z,51.37
2018-11-23T11:23:51.498Z,53.10
2018-11-23T11:26:39.875Z,48.70
2018-11-23T11:29:28.212Z,46.23
2018-11-23T11:32:16.554Z,47.77
2018-11-23T11:35:05.553Z,46.53
2018-11-23T11:37:34.518Z,47.80
2018-11-23T11:40:22.866Z,45.53
2018-11-23T11:42:51.843Z,48.60
2018-11-23T11:45:40.458Z,50.93
2018-11-23T11:48:28.790Z,50.40
2018-11-23T11:50:57.783Z,49.33
2018-11-23T11:53:46.110Z,49.43
2018-11-23T11:56:34.465Z,49.97
2018-11-23T11:59:22.761Z,49.60
2018-11-23T12:02:11.153Z,51.37
2018-11-23T12:04:59.502Z,51.20
2018-11-23T12:07:47.921Z,49.63
2018-11-23T12:10:36.235Z,45.77
2018-11-23T12:13:24.575Z,52.17
2018-11-23T12:16:12.923Z,44.60
2018-11-23T12:19:01.336Z,44.90
2018-11-23T12:21:49.651Z,45.40
2018-11-23T12:24:37.982Z,49.67
2018-11-23T12:27:29.352Z,49.30
2018-11-23T12:30:16.055Z,47.13
2018-11-23T12:33:04.429Z,42.47
2018-11-23T12:35:52.793Z,48.97
2018-11-23T12:38:43.161Z,43.70
2018-11-23T12:41:29.474Z,49.93
2018-11-23T12:44:11.008Z,45.40
2018-11-23T12:46:52.394Z,46.20
2018-11-23T12:49:34.056Z,46.50
2018-11-23T12:52:15.894Z,40.70
2018-11-23T12:54:56.922Z,46.13
2018-11-23T12:57:37.898Z,49.97
2018-11-23T13:00:28.920Z,47.20
2018-11-23T13:03:10.385Z,50.60
2018-11-23T13:05:52.089Z,42.87
2018-11-23T13:11:37.335Z,46.27
2018-11-23T13:14:25.695Z,43.70
2018-11-23T13:17:14.055Z,48.57
2018-11-23T13:19:43.111Z,47.27
2018-11-23T13:22:31.510Z,45.20
2018-11-23T13:25:38.984Z,44.23
2018-11-23T13:28:07.861Z,44.53
2018-11-23T13:30:56.175Z,46.30
2018-11-23T13:33:44.548Z,45.33
2018-11-23T13:36:32.898Z,46.77
2018-11-23T13:39:21.226Z,45.90
2018-11-23T13:42:09.590Z,46.23
2018-11-23T13:44:57.947Z,44.63
2018-11-23T13:47:46.308Z,44.07
2018-11-23T13:50:34.625Z,46.83
2018-11-23T13:53:22.937Z,47.30
2018-11-23T13:56:11.247Z,44.83
2018-11-23T13:58:59.619Z,48.27
2018-11-23T14:01:47.967Z,48.50
2018-11-23T14:04:36.313Z,51.70
2018-11-23T14:07:05.434Z,47.50
2018-11-23T14:09:53.794Z,45.40
2018-11-23T14:12:42.586Z,49.67
2018-11-23T14:15:31.499Z,50.00
2018-11-23T14:18:19.821Z,46.53
2018-11-23T14:21:08.154Z,47.90
2018-11-23T14:23:56.540Z,55.57
2018-11-23T14:26:44.881Z,49.63
2018-11-23T14:29:33.251Z,50.77
2018-11-23T14:32:02.165Z,46.57
2018-11-23T14:34:50.532Z,48.77
2018-11-23T14:37:39.363Z,50.03
2018-11-23T14:40:09.178Z,45.80
2018-11-23T14:42:57.861Z,50.80
2018-11-23T14:45:46.216Z,49.30
2018-11-23T14:48:34.542Z,51.20
2018-11-23T14:51:23.250Z,48.07
2018-11-23T14:54:11.580Z,45.87
2018-11-23T14:56:59.879Z,49.67
2018-11-23T14:59:48.228Z,49.57
2018-11-23T15:02:17.201Z,52.00
2018-11-23T15:05:05.924Z,46.07
2018-11-23T15:07:54.235Z,45.37
2018-11-23T15:10:42.545Z,48.63
2018-11-23T15:13:30.890Z,46.80
2018-11-23T15:16:19.233Z,54.37
2018-11-23T15:19:07.717Z,53.70
2018-11-23T15:21:56.052Z,47.97
2018-11-23T15:24:25.051Z,50.83
2018-11-23T15:26:54.306Z,46.70
2018-11-23T15:32:56.269Z,46.30
2018-11-23T15:35:44.739Z,47.97
2018-11-23T15:38:15.358Z,50.57
2018-11-23T15:40:44.339Z,46.17
2018-11-23T15:43:14.451Z,49.33
2018-11-23T15:46:02.847Z,46.27
2018-11-23T15:48:51.167Z,50.53
2018-11-23T15:51:20.134Z,48.13
2018-11-23T15:54:08.521Z,47.87
2018-11-23T15:56:45.359Z,49.70
2018-11-23T15:59:34.302Z,49.20
2018-11-23T16:02:03.639Z,43.07
2018-11-23T16:04:51.977Z,45.63
2018-11-23T16:07:21.305Z,47.30
2018-11-23T16:09:50.260Z,45.77
2018-11-23T16:12:38.704Z,48.23
2018-11-23T16:15:08.529Z,46.63
2018-11-23T16:17:57.413Z,48.33
2018-11-23T16:20:46.566Z,44.13
2018-11-23T16:23:34.992Z,45.23
2018-11-23T16:26:23.255Z,45.47
2018-11-23T16:29:11.627Z,46.33
2018-11-23T16:32:00.067Z,45.70
2018-11-23T16:38:03.646Z,50.43
2018-11-23T16:41:11.061Z,44.87
2018-11-23T16:43:40.026Z,41.83
2018-11-23T16:46:09.067Z,41.57
2018-11-23T16:52:11.116Z,42.73
2018-11-23T16:54:40.036Z,47.50
2018-11-23T16:57:28.382Z,46.00
2018-11-23T17:00:36.222Z,43.97
2018-11-23T17:03:07.447Z,44.90
2018-11-23T17:05:55.504Z,41.93
2018-11-23T17:08:43.830Z,45.67
2018-11-23T17:11:12.877Z,42.70
2018-11-23T17:13:41.731Z,40.20
2018-11-23T17:16:30.117Z,45.27
2018-11-23T17:19:18.408Z,41.27
2018-11-23T17:22:07.058Z,42.37
2018-11-23T17:24:55.556Z,40.23
2018-11-23T17:27:44.201Z,44.57
2018-11-23T17:30:33.409Z,42.30
2018-11-23T17:33:21.695Z,46.10
2018-11-23T17:36:10.201Z,42.53
2018-11-23T17:38:58.568Z,41.33
2018-11-23T17:41:27.515Z,42.20
2018-11-23T17:44:15.929Z,41.37
2018-11-23T17:47:04.202Z,44.83
2018-11-23T17:49:33.331Z,42.33
2018-11-23T17:52:02.419Z,41.23
2018-11-23T17:54:50.957Z,42.37
2018-11-23T17:57:39.720Z,40.23
2018-11-23T18:00:38.959Z,40.67
2018-11-23T18:03:20.496Z,41.40
2018-11-23T18:06:08.783Z,41.70
2018-11-23T18:08:57.140Z,42.80
2018-11-23T18:11:26.114Z,42.13
2018-11-23T18:14:14.473Z,42.93
2018-11-23T18:17:02.844Z,46.10
2018-11-23T18:19:51.511Z,41.47
2018-11-23T18:22:40.177Z,41.57
2018-11-23T18:25:47.596Z,43.73
2018-11-23T18:28:35.894Z,40.10
2018-11-23T18:31:05.140Z,44.97
2018-11-23T18:33:34.019Z,44.17
2018-11-23T18:36:22.451Z,48.27
2018-11-23T18:39:10.788Z,46.83
2018-11-23T18:41:59.102Z,46.53
2018-11-23T18:44:28.076Z,43.17
2018-11-23T18:47:16.434Z,39.53
2018-11-23T18:50:05.259Z,44.60
2018-11-23T18:52:53.604Z,44.07
2018-11-23T18:55:41.898Z,48.07
2018-11-23T18:58:30.386Z,40.60
2018-11-23T19:00:59.353Z,43.50
2018-11-23T19:03:28.436Z,44.07
2018-11-23T19:06:16.827Z,47.17
2018-11-23T19:09:07.604Z,43.50
2018-11-23T19:11:55.956Z,49.80
2018-11-23T19:14:44.286Z,41.07
2018-11-23T19:17:32.632Z,42.23
2018-11-23T19:20:01.524Z,43.57
2018-11-23T19:22:50.324Z,45.13
2018-11-23T19:25:38.734Z,44.70
2018-11-23T19:28:27.262Z,43.93
2018-11-23T19:31:15.558Z,46.03
2018-11-23T19:34:03.878Z,45.97
2018-11-23T19:36:52.281Z,46.43
2018-11-23T19:39:40.697Z,43.57
2018-11-23T19:42:28.922Z,48.17
2018-11-23T19:45:17.340Z,44.57
2018-11-23T19:48:05.880Z,46.53
2018-11-23T19:50:54.223Z,48.67
2018-11-23T19:53:23.241Z,47.10
2018-11-23T19:55:52.588Z,43.30
2018-11-23T19:58:21.641Z,44.80
2018-11-23T20:01:10.005Z,50.20
2018-11-23T20:03:58.424Z,46.10
2018-11-23T20:06:47.365Z,42.97
2018-11-23T20:09:39.826Z,51.30
2018-11-23T20:12:24.000Z,46.57
2018-11-23T20:15:13.027Z,45.97
2018-11-23T20:18:01.517Z,46.50
2018-11-23T20:20:49.896Z,42.77
2018-11-23T20:23:38.296Z,45.60
2018-11-23T20:26:26.831Z,45.30
2018-11-23T20:29:15.209Z,44.20
2018-11-23T20:32:03.579Z,43.23
2018-11-23T20:34:51.894Z,42.13
2018-11-23T20:37:40.262Z,46.40
2018-11-23T20:40:28.633Z,44.87
2018-11-23T20:43:17.161Z,42.30
2018-11-23T20:46:05.403Z,43.33
2018-11-23T20:48:34.398Z,40.63
2018-11-23T20:51:03.354Z,47.47
2018-11-23T20:53:51.695Z,43.30
2018-11-23T20:56:39.994Z,39.03
2018-11-23T20:59:28.314Z,40.63
2018-11-23T21:02:16.651Z,45.73
2018-11-23T21:04:45.642Z,39.33
2018-11-23T21:07:33.963Z,40.77
2018-11-23T21:10:22.881Z,40.07
2018-11-23T21:13:11.205Z,40.63
2018-11-23T21:15:59.534Z,42.37
2018-11-23T21:18:28.537Z,39.93
2018-11-23T21:21:16.848Z,40.73
2018-11-23T21:24:05.464Z,43.17
2018-11-23T21:26:53.840Z,45.70
2018-11-23T21:29:42.187Z,46.43
2018-11-23T21:32:11.331Z,42.17
2018-11-23T21:34:59.674Z,38.57
2018-11-23T21:37:48.009Z,46.43
2018-11-23T21:40:36.397Z,44.83
2018-11-23T21:47:21.761Z,44.93
2018-11-23T21:50:03.435Z,47.13
2018-11-23T21:52:44.637Z,42.60
2018-11-23T21:55:26.250Z,47.13
2018-11-23T21:57:56.398Z,45.53
2018-11-23T22:00:45.135Z,47.07
2018-11-23T22:03:14.917Z,43.20
2018-11-23T22:06:03.564Z,46.27
2018-11-23T22:11:40.764Z,50.30
2018-11-23T22:14:29.729Z,41.40
2018-11-23T22:16:58.661Z,42.90
2018-11-23T22:19:47.328Z,44.70
2018-11-23T22:22:35.476Z,46.43
2018-11-23T22:25:23.809Z,42.47
2018-11-23T22:28:12.173Z,47.47
2018-11-23T22:30:41.111Z,43.97
2018-11-23T22:33:29.507Z,45.20
2018-11-23T22:36:17.778Z,41.00
2018-11-23T22:39:08.173Z,47.47
2018-11-23T22:41:56.473Z,42.07
2018-11-23T22:47:52.197Z,42.57
2018-11-23T22:50:40.649Z,46.77
2018-11-23T22:53:48.359Z,44.47
2018-11-23T22:56:17.435Z,45.40
2018-11-23T22:59:05.895Z,40.87
2018-11-23T23:01:35.134Z,42.97
2018-11-23T23:04:23.480Z,44.43
2018-11-23T23:07:12.089Z,43.43
2018-11-23T23:10:00.507Z,40.97
2018-11-23T23:12:49.275Z,43.30
2018-11-23T23:15:37.789Z,41.57
2018-11-23T23:18:06.838Z,44.87
2018-11-23T23:20:36.873Z,45.23
2018-11-23T23:23:25.377Z,40.87
2018-11-23T23:26:13.709Z,42.53
2018-11-23T23:29:02.336Z,41.60
2018-11-23T23:31:50.629Z,40.70
2018-11-23T23:34:39.335Z,42.20
2018-11-23T23:37:08.666Z,46.50
2018-11-23T23:39:57.020Z,42.63
2018-11-23T23:42:45.489Z,43.57
2018-11-23T23:45:34.199Z,44.27
2018-11-23T23:48:03.338Z,42.27
2018-11-23T23:50:51.888Z,43.63
2018-11-23T23:53:40.200Z,43.20
2018-11-23T23:56:28.564Z,41.50
2018-11-23T23:59:16.868Z,44.50
